Time;durP1;ratioP1;P1;durP2;ratioP2;P2;SDS_P1;SDS_P2;PMS_P1;PMS_P2;Temp;Humidity;BMP_temperature;BMP_pressure;BME280_temperature;BME280_humidity;BME280_pressure;Samples;Min_cycle;Max_cycle;Signal;HPM_P1;HPM_P2
2023/08/09 00:00:47;;;;;;;5.40;1.83;;;13.30;99.90;;;;;;5073690;28;20082;-70
2023/08/09 00:03:13;;;;;;;5.80;1.50;;;13.30;99.90;;;;;;5074174;28;20059;-70
2023/08/09 00:05:39;;;;;;;5.60;1.50;;;13.20;99.90;;;;;;5074757;28;20279;-70
2023/08/09 00:08:04;;;;;;;4.37;1.70;;;13.20;99.90;;;;;;5074832;28;20041;-70
2023/08/09 00:10:31;;;;;;;3.73;2.03;;;13.20;99.90;;;;;;5072857;28;20063;-69
2023/08/09 00:12:56;;;;;;;4.53;1.50;;;13.20;99.90;;;;;;5074611;28;20087;-70
2023/08/09 00:15:22;;;;;;;4.40;1.80;;;13.20;99.90;;;;;;5073824;28;20287;-70
2023/08/09 00:17:48;;;;;;;6.57;1.53;;;13.10;99.90;;;;;;5074604;28;20082;-70
2023/08/09 00:20:13;;;;;;;3.80;1.50;;;13.10;99.90;;;;;;5074907;28;20381;-70
2023/08/09 00:22:40;;;;;;;4.27;1.90;;;13.10;99.90;;;;;;5073098;28;20119;-69
2023/08/09 00:25:07;;;;;;;5.87;2.13;;;13.10;99.90;;;;;;5074590;28;20080;-70
2023/08/09 00:27:33;;;;;;;5.60;1.90;;;13.10;99.90;;;;;;5073993;28;20755;-70
2023/08/09 00:29:59;;;;;;;5.57;1.40;;;13.10;99.90;;;;;;5074281;28;20297;-70
2023/08/09 00:32:24;;;;;;;5.23;1.87;;;13.10;99.90;;;;;;5073166;28;20478;-70
2023/08/09 00:34:50;;;;;;;3.90;1.43;;;13.10;99.90;;;;;;5074248;28;20082;-70
2023/08/09 00:37:16;;;;;;;6.57;1.70;;;13.10;99.90;;;;;;5074351;28;20407;-70
2023/08/09 00:39:42;;;;;;;4.13;1.57;;;13.00;99.90;;;;;;5074106;28;20370;-71
2023/08/09 00:42:08;;;;;;;5.27;1.53;;;13.00;99.90;;;;;;5074135;28;20059;-70
2023/08/09 00:44:34;;;;;;;7.33;1.90;;;13.00;99.90;;;;;;5074155;28;20365;-70
2023/08/09 00:47:00;;;;;;;4.37;1.60;;;12.90;99.90;;;;;;5073942;28;20049;-70
2023/08/09 00:49:27;;;;;;;6.57;1.90;;;12.80;99.90;;;;;;5074024;28;20119;-69
2023/08/09 00:51:53;;;;;;;5.63;1.80;;;12.80;99.90;;;;;;5074001;28;20109;-70
2023/08/09 00:54:19;;;;;;;6.17;1.67;;;12.80;99.90;;;;;;5074038;28;20307;-70
2023/08/09 00:56:46;;;;;;;3.57;1.60;;;12.90;99.90;;;;;;5073772;28;20290;-70
2023/08/09 00:59:12;;;;;;;4.10;1.70;;;12.80;99.90;;;;;;5073983;28;20271;-70
2023/08/09 01:01:39;;;;;;;4.20;1.70;;;12.80;99.90;;;;;;5073496;28;20830;-70
2023/08/09 01:04:05;;;;;;;3.90;1.90;;;12.80;99.90;;;;;;5073694;28;20827;-70
2023/08/09 01:06:52;;;;;;;6.30;1.97;;;12.90;99.90;;;;;;5073977;28;20274;-70
2023/08/09 01:09:38;;;;;;;4.90;1.60;;;12.80;99.90;;;;;;5073729;28;20762;-70
2023/08/09 01:12:23;;;;;;;;;;;12.80;99.90;;;;;;5073965;28;20366;-70
2023/08/09 01:14:52;;;;;;;4.20;1.50;;;12.80;99.90;;;;;;5073544;28;20014;-70
2023/08/09 01:17:19;;;;;;;10.57;2.13;;;12.70;99.90;;;;;;5072629;28;20331;-70
2023/08/09 01:19:57;;;;;;;5.27;1.77;;;12.80;99.90;;;;;;5073579;28;20274;-70
2023/08/09 01:22:30;;;;;;;4.23;1.73;;;12.70;99.90;;;;;;5071776;28;20899;-70
2023/08/09 01:25:02;;;;;;;3.77;1.70;;;12.70;99.90;;;;;;5072171;28;20837;-70
2023/08/09 01:27:29;;;;;;;5.10;1.80;;;12.70;99.90;;;;;;5073458;28;20286;-70
2023/08/09 01:29:56;;;;;;;4.53;1.60;;;12.60;99.90;;;;;;5073165;28;20294;-70
2023/08/09 01:32:26;;;;;;;4.50;1.67;;;12.60;99.90;;;;;;5073468;28;20780;-70
2023/08/09 01:34:52;;;;;;;8.00;2.03;;;12.60;99.90;;;;;;5073369;28;20412;-70
2023/08/09 01:37:28;;;;;;;6.53;1.70;;;12.50;99.90;;;;;;5073560;28;20732;-70
2023/08/09 01:39:57;;;;;;;4.50;2.20;;;12.50;99.90;;;;;;5055627;28;20045;-70
2023/08/09 01:42:24;;;;;;;6.67;1.80;;;12.40;99.90;;;;;;5072154;28;20310;-70
2023/08/09 01:44:51;;;;;;;6.57;1.83;;;12.40;99.90;;;;;;5073160;28;20279;-70
2023/08/09 01:47:17;;;;;;;5.43;1.90;;;12.40;99.90;;;;;;5073350;28;20279;-70
2023/08/09 01:49:47;;;;;;;3.57;1.40;;;12.30;99.90;;;;;;5073155;28;20385;-70
2023/08/09 01:52:14;;;;;;;3.67;1.50;;;12.30;99.90;;;;;;5072756;28;20668;-69
2023/08/09 01:54:40;;;;;;;4.20;1.70;;;12.40;99.90;;;;;;5073199;28;20322;-70
2023/08/09 01:57:06;;;;;;;5.00;1.90;;;12.30;99.90;;;;;;5072970;28;20270;-69
2023/08/09 01:59:32;;;;;;;4.47;1.90;;;12.30;99.90;;;;;;5073069;28;20282;-70
2023/08/09 02:01:58;;;;;;;4.70;1.47;;;12.40;99.90;;;;;;5072875;28;20043;-70
2023/08/09 02:04:23;;;;;;;5.10;1.73;;;12.40;99.90;;;;;;5072156;28;20124;-70
2023/08/09 02:06:49;;;;;;;4.57;1.67;;;12.40;99.90;;;;;;5073061;28;20044;-70
2023/08/09 02:09:15;;;;;;;4.90;2.13;;;12.30;99.90;;;;;;5072819;28;20040;-70
2023/08/09 02:11:41;;;;;;;4.10;1.70;;;12.30;99.90;;;;;;5073146;28;20048;-70
2023/08/09 02:14:07;;;;;;;5.93;1.97;;;12.40;99.90;;;;;;5072732;28;20048;-70
2023/08/09 02:16:33;;;;;;;4.60;1.70;;;12.30;99.90;;;;;;5072982;28;20076;-70
2023/08/09 02:18:59;;;;;;;7.63;2.03;;;12.30;99.90;;;;;;5072689;28;20607;-70
2023/08/09 02:21:26;;;;;;;6.17;1.90;;;12.30;99.90;;;;;;5073214;28;20105;-70
2023/08/09 02:23:52;;;;;;;4.60;1.87;;;12.30;99.90;;;;;;5072898;28;20274;-70
2023/08/09 02:26:21;;;;;;;5.57;2.00;;;12.30;99.90;;;;;;5072612;28;20333;-70
2023/08/09 02:28:48;;;;;;;4.47;1.90;;;12.30;99.90;;;;;;5072243;28;20306;-70
2023/08/09 02:31:14;;;;;;;4.10;1.70;;;12.30;99.90;;;;;;5072659;28;20283;-70
2023/08/09 02:33:40;;;;;;;4.40;2.00;;;12.30;99.90;;;;;;5074734;28;20274;-70
2023/08/09 02:36:06;;;;;;;5.87;2.27;;;12.20;99.90;;;;;;5076521;28;20270;-69
2023/08/09 02:38:32;;;;;;;4.40;2.03;;;12.30;99.90;;;;;;5076696;28;20036;-69
2023/08/09 02:41:00;;;;;;;4.70;1.80;;;12.20;99.90;;;;;;5075194;28;20137;-70
2023/08/09 02:43:26;;;;;;;6.80;1.93;;;12.20;99.90;;;;;;5075714;28;20047;-70
2023/08/09 02:45:53;;;;;;;4.87;1.90;;;12.20;99.90;;;;;;5076568;28;20396;-70
2023/08/09 02:48:19;;;;;;;4.40;1.70;;;12.20;99.90;;;;;;5075014;28;20291;-70
2023/08/09 02:50:45;;;;;;;4.70;1.67;;;12.20;99.90;;;;;;5076439;28;20735;-70
2023/08/09 02:53:12;;;;;;;4.50;2.07;;;12.10;99.90;;;;;;5076224;28;20281;-69
2023/08/09 02:55:38;;;;;;;6.53;2.17;;;12.10;99.90;;;;;;5075205;28;20080;-70
2023/08/09 02:58:05;;;;;;;8.57;2.43;;;12.10;99.90;;;;;;5076079;28;20310;-70
2023/08/09 03:00:31;;;;;;;5.60;1.90;;;12.10;99.90;;;;;;5076242;28;20098;-70
2023/08/09 03:02:58;;;;;;;5.37;1.80;;;12.10;99.90;;;;;;5076116;28;20278;-70
2023/08/09 03:05:24;;;;;;;6.93;1.53;;;12.10;99.90;;;;;;5076174;28;20324;-70
2023/08/09 03:07:51;;;;;;;6.50;1.77;;;12.10;99.90;;;;;;5076082;28;20348;-70
2023/08/09 03:10:17;;;;;;;6.80;2.00;;;12.10;99.90;;;;;;5075791;28;20307;-70
2023/08/09 03:12:43;;;;;;;6.10;2.30;;;12.10;99.90;;;;;;5075765;28;20282;-70
2023/08/09 03:15:10;;;;;;;8.67;1.90;;;12.10;99.90;;;;;;5075806;28;20352;-70
2023/08/09 03:17:36;;;;;;;6.00;2.00;;;12.10;99.90;;;;;;5075910;28;20396;-70
2023/08/09 03:20:13;;;;;;;4.23;1.67;;;12.10;99.90;;;;;;5075721;28;20328;-70
2023/08/09 03:22:43;;;;;;;3.83;1.83;;;12.10;99.90;;;;;;5076195;28;20275;-70
2023/08/09 03:25:10;;;;;;;5.60;2.23;;;12.00;99.90;;;;;;5075565;28;20286;-69
2023/08/09 03:27:37;;;;;;;4.80;2.17;;;12.00;99.90;;;;;;5075427;28;20655;-69
2023/08/09 03:30:08;;;;;;;5.97;1.97;;;12.00;99.90;;;;;;5075415;28;20624;-70
2023/08/09 03:32:34;;;;;;;5.53;1.53;;;12.00;99.90;;;;;;5076342;28;20336;-70
2023/08/09 03:35:00;;;;;;;7.10;2.00;;;11.90;99.90;;;;;;5075573;28;20366;-70
2023/08/09 03:37:26;;;;;;;5.70;2.10;;;12.00;99.90;;;;;;5075401;28;20416;-70
2023/08/09 03:39:51;;;;;;;5.37;1.70;;;11.90;99.90;;;;;;5075543;28;20043;-69
2023/08/09 03:42:17;;;;;;;5.23;1.80;;;11.90;99.90;;;;;;5075274;28;20047;-70
2023/08/09 03:44:43;;;;;;;6.10;2.13;;;11.90;99.90;;;;;;5074629;28;20045;-70
2023/08/09 03:47:09;;;;;;;4.53;2.00;;;11.80;99.90;;;;;;5075185;28;20133;-70
2023/08/09 03:49:34;;;;;;;3.47;1.60;;;11.80;99.90;;;;;;5075486;28;20052;-70
2023/08/09 03:52:00;;;;;;;3.13;1.63;;;11.80;99.90;;;;;;5075326;28;20044;-69
2023/08/09 03:54:26;;;;;;;5.30;2.10;;;11.80;99.90;;;;;;5075069;28;20076;-70
2023/08/09 03:56:52;;;;;;;4.97;1.80;;;11.80;99.90;;;;;;5075212;28;20054;-70
2023/08/09 03:59:17;;;;;;;5.67;2.27;;;11.80;99.90;;;;;;5074960;28;20284;-70
2023/08/09 04:01:43;;;;;;;5.43;2.00;;;11.80;99.90;;;;;;5074210;28;20094;-70
2023/08/09 04:04:09;;;;;;;4.37;1.90;;;11.70;99.90;;;;;;5074831;28;20522;-70
2023/08/09 04:06:34;;;;;;;4.13;2.03;;;11.70;99.90;;;;;;5075081;28;20094;-70
2023/08/09 04:09:01;;;;;;;4.50;2.37;;;11.70;99.90;;;;;;5075099;28;20083;-70
2023/08/09 04:11:28;;;;;;;4.17;1.90;;;11.70;99.90;;;;;;5074662;28;20052;-70
2023/08/09 04:13:54;;;;;;;6.87;2.03;;;11.70;99.90;;;;;;5074703;28;20285;-70
2023/08/09 04:16:19;;;;;;;5.20;1.70;;;11.70;99.90;;;;;;5074617;28;20283;-70
2023/08/09 04:18:45;;;;;;;7.60;2.07;;;11.70;99.90;;;;;;5074065;28;20047;-70
2023/08/09 04:21:10;;;;;;;6.23;2.03;;;11.70;99.90;;;;;;5074584;28;20126;-70
2023/08/09 04:23:36;;;;;;;6.93;2.20;;;11.70;99.90;;;;;;5074704;28;20052;-70
2023/08/09 04:26:03;;;;;;;5.40;2.37;;;11.70;99.90;;;;;;5074612;28;20464;-70
2023/08/09 04:28:29;;;;;;;5.07;1.83;;;11.70;99.90;;;;;;5073846;28;20133;-70
2023/08/09 04:30:55;;;;;;;4.97;2.17;;;11.70;99.90;;;;;;5074435;28;20278;-70
2023/08/09 04:33:22;;;;;;;4.97;2.00;;;11.70;99.90;;;;;;5074146;28;20278;-70
2023/08/09 04:35:48;;;;;;;6.17;2.03;;;11.70;99.90;;;;;;5073596;28;20291;-70
2023/08/09 04:38:14;;;;;;;4.33;1.70;;;11.70;99.90;;;;;;5073064;28;20285;-70
2023/08/09 04:40:40;;;;;;;5.77;2.23;;;11.70;99.90;;;;;;5074304;28;20123;-70
2023/08/09 04:43:06;;;;;;;4.20;1.90;;;11.70;99.90;;;;;;5074276;28;20040;-70
2023/08/09 04:45:33;;;;;;;5.90;1.80;;;11.70;99.90;;;;;;5074009;28;20279;-70
2023/08/09 04:47:59;;;;;;;5.30;2.10;;;11.70;99.90;;;;;;5074231;28;20120;-70
2023/08/09 04:50:25;;;;;;;6.00;2.40;;;11.80;99.90;;;;;;5073970;28;20357;-70
2023/08/09 04:52:50;;;;;;;7.10;2.20;;;11.80;99.90;;;;;;5073282;28;20137;-70
2023/08/09 04:55:16;;;;;;;4.97;2.20;;;11.80;99.90;;;;;;5073747;28;20177;-70
2023/08/09 04:57:43;;;;;;;6.83;2.27;;;11.90;99.90;;;;;;5073707;28;20119;-70
2023/08/09 05:00:13;;;;;;;5.73;1.80;;;11.90;99.90;;;;;;5073857;28;20037;-69
2023/08/09 05:02:39;;;;;;;5.83;2.30;;;11.80;99.90;;;;;;5074272;28;20311;-70
2023/08/09 05:05:09;;;;;;;4.57;2.20;;;11.90;99.90;;;;;;5073844;28;20357;-70
2023/08/09 05:07:35;;;;;;;3.97;1.77;;;11.90;99.90;;;;;;5073547;28;20325;-70
2023/08/09 05:10:02;;;;;;;4.57;1.97;;;12.00;99.90;;;;;;5073640;28;20302;-70
2023/08/09 05:12:28;;;;;;;6.87;2.10;;;12.10;99.90;;;;;;5073555;28;20275;-70
2023/08/09 05:14:54;;;;;;;5.17;1.70;;;12.10;99.90;;;;;;5073704;28;20357;-70
2023/08/09 05:17:20;;;;;;;5.00;2.30;;;12.10;99.90;;;;;;5073470;28;20353;-70
2023/08/09 05:19:46;;;;;;;5.57;1.80;;;12.10;99.90;;;;;;5073830;28;20687;-70
2023/08/09 05:22:12;;;;;;;7.00;2.07;;;12.20;99.90;;;;;;5073657;28;20040;-70
2023/08/09 05:24:38;;;;;;;5.40;1.97;;;12.30;99.90;;;;;;5073385;28;20311;-70
2023/08/09 05:27:03;;;;;;;4.27;1.97;;;12.40;99.90;;;;;;5072895;28;20040;-70
2023/08/09 05:29:29;;;;;;;4.33;1.80;;;12.40;99.90;;;;;;5073264;28;20495;-70
2023/08/09 05:31:55;;;;;;;5.57;2.40;;;12.50;99.90;;;;;;5073398;28;20040;-70
2023/08/09 05:34:21;;;;;;;4.33;1.80;;;12.60;99.90;;;;;;5072920;28;20110;-70
2023/08/09 05:36:46;;;;;;;5.20;2.10;;;12.70;99.90;;;;;;5073381;28;20044;-70
2023/08/09 05:39:12;;;;;;;5.10;2.00;;;12.80;99.90;;;;;;5073364;28;20036;-69
2023/08/09 05:41:39;;;;;;;6.23;1.67;;;12.90;99.90;;;;;;5072932;28;20472;-69
2023/08/09 05:44:05;;;;;;;4.17;1.90;;;13.00;99.90;;;;;;5073289;28;20308;-70
2023/08/09 05:46:30;;;;;;;5.77;2.17;;;13.20;99.90;;;;;;5073042;28;20271;-70
2023/08/09 05:48:56;;;;;;;5.73;1.50;;;13.30;99.90;;;;;;5073292;28;20046;-70
2023/08/09 05:51:22;;;;;;;6.23;2.20;;;13.50;99.90;;;;;;5072093;28;20052;-70
2023/08/09 05:53:48;;;;;;;4.53;1.50;;;13.70;99.90;;;;;;5073173;28;20048;-70
2023/08/09 05:56:14;;;;;;;6.80;1.67;;;14.00;99.90;;;;;;5073256;28;20278;-70
2023/08/09 05:58:40;;;;;;;5.50;1.90;;;15.20;99.90;;;;;;5071753;28;20120;-70
2023/08/09 06:01:07;;;;;;;6.57;1.60;;;16.80;99.90;;;;;;5073271;28;20044;-70
2023/08/09 06:03:38;;;;;;;5.07;1.70;;;18.30;99.90;;;;;;5072879;28;20051;-70
2023/08/09 06:06:06;;;;;;;5.00;1.77;;;19.70;99.90;;;;;;5073147;28;20044;-70
2023/08/09 06:08:33;;;;;;;4.40;1.80;;;20.90;99.90;;;;;;5073172;28;20455;-70
2023/08/09 06:10:59;;;;;;;3.47;1.27;;;21.90;99.90;;;;;;5077387;28;20041;-70
2023/08/09 06:13:25;;;;;;;4.60;1.50;;;22.90;99.90;;;;;;5076981;28;20045;-70
2023/08/09 06:15:51;;;;;;;2.10;1.27;;;23.60;99.90;;;;;;5059241;28;20044;-70
2023/08/09 06:18:16;;;;;;;4.27;1.60;;;24.40;99.90;;;;;;5077099;28;20098;-70
2023/08/09 06:20:43;;;;;;;2.53;1.47;;;25.00;99.90;;;;;;5076797;28;20040;-70
2023/08/09 06:23:09;;;;;;;5.70;1.73;;;25.50;99.90;;;;;;5076966;28;20103;-70
2023/08/09 06:25:35;;;;;;;4.43;1.40;;;26.00;99.90;;;;;;5076420;28;20472;-71
2023/08/09 06:28:01;;;;;;;5.13;2.00;;;26.70;98.60;;;;;;5077176;28;20053;-70
2023/08/09 06:30:26;;;;;;;3.40;1.20;;;27.10;94.50;;;;;;5076651;28;20491;-71
2023/08/09 06:32:53;;;;;;;2.67;1.23;;;27.60;88.50;;;;;;5076814;28;20051;-70
2023/08/09 06:35:19;;;;;;;4.43;1.47;;;28.00;80.70;;;;;;5076899;28;20043;-70
2023/08/09 06:37:46;;;;;;;4.13;2.00;;;28.40;69.50;;;;;;5076487;28;20045;-70
2023/08/09 06:40:12;;;;;;;2.17;1.20;;;28.80;64.80;;;;;;5076625;28;20047;-70
2023/08/09 06:42:39;;;;;;;3.83;1.47;;;29.20;61.60;;;;;;5076361;28;20040;-71
2023/08/09 06:45:05;;;;;;;4.83;1.50;;;29.40;56.90;;;;;;5076555;28;20044;-70
2023/08/09 06:47:31;;;;;;;5.65;1.40;;;29.80;56.60;;;;;;5076287;28;20036;-70
2023/08/09 06:49:57;;;;;;;5.22;2.03;;;30.20;54.50;;;;;;5076418;28;20090;-70
2023/08/09 06:52:23;;;;;;;3.58;1.48;;;30.40;53.00;;;;;;5076454;28;20443;-71
2023/08/09 06:54:48;;;;;;;4.72;1.65;;;30.60;52.20;;;;;;5076108;28;20063;-71
2023/08/09 06:57:14;;;;;;;6.30;1.60;;;30.90;50.90;;;;;;5076034;28;20048;-71
2023/08/09 06:59:40;;;;;;;3.72;1.42;;;31.20;49.90;;;;;;5076117;28;20044;-71
2023/08/09 07:02:05;;;;;;;3.40;1.25;;;31.50;49.50;;;;;;5076286;28;20044;-71
2023/08/09 07:04:31;;;;;;;3.65;1.55;;;31.50;48.40;;;;;;5076055;28;20380;-71
2023/08/09 07:06:57;;;;;;;6.18;1.60;;;31.80;47.70;;;;;;5076164;28;20416;-71
2023/08/09 07:09:23;;;;;;;7.30;1.60;;;;;;;;;;5058326;28;20032;-71
2023/08/09 07:11:48;;;;;;;4.30;1.70;;;31.90;46.20;;;;;;5075838;28;20133;-71
2023/08/09 07:14:14;;;;;;;5.68;1.50;;;32.00;46.20;;;;;;5074829;28;20107;-71
2023/08/09 07:16:40;;;;;;;3.47;1.40;;;32.30;46.00;;;;;;5075796;28;20032;-71
2023/08/09 07:19:05;;;;;;;6.15;1.88;;;32.40;45.10;;;;;;5075955;28;20464;-71
2023/08/09 07:21:31;;;;;;;4.30;1.65;;;32.70;44.90;;;;;;5075708;28;20490;-71
2023/08/09 07:23:57;;;;;;;2.63;1.73;;;32.90;44.50;;;;;;5075870;28;20044;-70
2023/08/09 07:26:23;;;;;;;3.50;1.60;;;33.20;43.80;;;;;;5075864;28;20076;-70
2023/08/09 07:28:49;;;;;;;3.63;1.40;;;33.40;43.30;;;;;;5073840;28;20063;-71
2023/08/09 07:31:22;;;;;;;2.88;1.27;;;33.40;43.00;;;;;;5075792;28;20052;-70
2023/08/09 07:33:48;;;;;;;6.23;1.90;;;33.60;42.70;;;;;;5075590;28;20131;-71
2023/08/09 07:36:14;;;;;;;4.97;1.65;;;33.80;42.60;;;;;;5075682;28;20124;-70
2023/08/09 07:38:40;;;;;;;2.83;1.40;;;33.80;38.70;;;;;;5075368;28;20115;-71
2023/08/09 07:41:06;;;;;;;5.28;1.80;;;33.80;41.30;;;;;;5075652;28;20040;-71
2023/08/09 07:43:31;;;;;;;3.53;1.55;;;33.90;40.80;;;;;;5075352;28;20541;-71
2023/08/09 07:45:57;;;;;;;3.38;1.48;;;33.90;40.10;;;;;;5075432;28;20123;-71
2023/08/09 07:48:23;;;;;;;4.47;1.60;;;33.90;39.90;;;;;;5075344;28;20144;-71
2023/08/09 07:50:49;;;;;;;5.32;1.33;;;34.10;39.20;;;;;;5075213;28;20452;-71
2023/08/09 07:53:15;;;;;;;3.05;1.33;;;34.20;39.10;;;;;;5075467;28;20044;-71
2023/08/09 07:55:41;;;;;;;4.07;1.40;;;34.10;39.00;;;;;;5074962;28;20063;-71
2023/08/09 07:58:06;;;;;;;3.00;1.17;;;33.70;39.00;;;;;;5075245;28;20043;-71
2023/08/09 08:00:33;;;;;;;6.63;1.60;;;33.60;38.60;;;;;;5074949;28;20534;-71
2023/08/09 08:02:59;;;;;;;6.35;1.50;;;33.60;39.30;;;;;;5075146;28;20088;-71
2023/08/09 08:05:25;;;;;;;2.97;1.50;;;33.80;39.30;;;;;;5073871;28;20040;-71
2023/08/09 08:07:50;;;;;;;3.17;1.70;;;33.90;39.10;;;;;;5073644;28;20557;-71
2023/08/09 08:10:17;;;;;;;2.78;1.40;;;33.90;39.10;;;;;;5074827;28;20149;-71
2023/08/09 08:12:45;;;;;;;3.35;1.27;;;33.80;39.00;;;;;;5073277;28;20476;-71
2023/08/09 08:15:12;;;;;;;3.15;1.60;;;33.80;39.00;;;;;;5073628;28;20074;-71
2023/08/09 08:17:38;;;;;;;3.42;1.38;;;33.70;39.10;;;;;;5073365;28;20048;-71
2023/08/09 08:20:10;;;;;;;5.43;1.58;;;33.50;39.50;;;;;;5074764;28;20040;-71
2023/08/09 08:22:37;;;;;;;3.90;1.70;;;32.90;39.20;;;;;;5074723;28;20093;-71
2023/08/09 08:25:04;;;;;;;4.38;1.60;;;31.80;40.10;;;;;;5075014;28;20033;-71
2023/08/09 08:27:34;;;;;;;3.50;1.80;;;30.90;40.90;;;;;;5074285;28;20063;-71
2023/08/09 08:30:00;;;;;;;6.03;1.42;;;30.00;41.50;;;;;;5074908;28;20044;-70
2023/08/09 08:32:26;;;;;;;4.35;1.40;;;29.40;42.10;;;;;;5074030;28;20495;-70
2023/08/09 08:34:56;;;;;;;4.97;1.70;;;29.00;42.30;;;;;;5074317;28;20045;-71
2023/08/09 08:37:24;;;;;;;2.70;1.30;;;28.50;42.80;;;;;;5074668;28;20051;-70
2023/08/09 08:39:50;;;;;;;3.33;1.55;;;28.00;43.10;;;;;;5074162;28;20120;-71
2023/08/09 08:42:18;;;;;;;3.72;1.65;;;27.60;44.20;;;;;;5074011;28;20549;-70
2023/08/09 08:44:44;;;;;;;4.10;1.70;;;27.30;44.50;;;;;;5074151;28;20075;-70
2023/08/09 08:47:10;;;;;;;3.53;1.40;;;27.00;44.60;;;;;;5074258;28;20040;-70
2023/08/09 08:49:43;;;;;;;4.80;1.50;;;26.60;44.90;;;;;;5074122;28;20041;-70
2023/08/09 08:52:10;;;;;;;3.55;1.40;;;26.50;45.70;;;;;;5073958;28;20419;-70
2023/08/09 08:54:37;;;;;;;3.63;1.30;;;26.40;46.00;;;;;;5074083;28;20044;-70
2023/08/09 08:57:03;;;;;;;4.85;1.60;;;26.30;46.30;;;;;;5074147;28;20044;-70
2023/08/09 08:59:29;;;;;;;2.47;1.27;;;26.20;46.30;;;;;;5074057;28;20040;-70
2023/08/09 09:01:56;;;;;;;4.22;1.50;;;26.00;46.30;;;;;;5073688;28;20053;-70
2023/08/09 09:04:23;;;;;;;4.10;1.33;;;25.80;46.30;;;;;;5074074;28;20036;-70
2023/08/09 09:06:49;;;;;;;4.40;1.33;;;25.60;45.90;;;;;;5073661;28;20494;-70
2023/08/09 09:09:15;;;;;;;3.42;1.02;;;25.40;45.90;;;;;;5073719;28;20082;-70
2023/08/09 09:11:44;;;;;;;3.17;1.20;;;25.20;46.10;;;;;;5073737;28;20428;-71
2023/08/09 09:14:18;;;;;;;3.63;1.40;;;25.00;46.70;;;;;;5073735;28;20047;-70
2023/08/09 09:16:45;;;;;;;3.17;1.27;;;24.90;47.30;;;;;;5073485;28;20047;-70
2023/08/09 09:19:11;;;;;;;4.35;1.30;;;24.80;47.80;;;;;;5073824;28;20040;-70
2023/08/09 09:21:37;;;;;;;2.30;1.05;;;24.60;48.10;;;;;;5073782;28;20437;-70
2023/08/09 09:24:10;;;;;;;2.60;1.13;;;24.50;48.20;;;;;;5073414;28;20045;-70
2023/08/09 09:26:38;;;;;;;3.93;1.33;;;24.30;48.70;;;;;;5073500;28;20055;-70
2023/08/09 09:29:08;;;;;;;3.53;1.40;;;24.30;49.70;;;;;;5073378;28;20135;-70
2023/08/09 09:31:39;;;;;;;3.20;1.20;;;24.20;50.00;;;;;;5073487;28;20115;-70
2023/08/09 09:34:09;;;;;;;4.33;1.30;;;24.10;50.30;;;;;;5073306;28;20063;-70
2023/08/09 09:36:39;;;;;;;2.80;1.13;;;24.10;50.70;;;;;;5073381;28;20041;-70
2023/08/09 09:39:11;;;;;;;3.53;1.13;;;24.10;51.10;;;;;;5073064;28;20036;-70
2023/08/09 09:41:46;;;;;;;4.40;1.20;;;23.90;51.20;;;;;;5072312;28;20048;-70
2023/08/09 09:44:17;;;;;;;4.03;1.17;;;23.90;51.40;;;;;;5072423;28;20044;-70
2023/08/09 09:46:42;;;;;;;3.50;1.20;;;23.70;51.70;;;;;;5073356;28;20040;-70
2023/08/09 09:49:08;;;;;;;5.33;1.60;;;23.50;52.70;;;;;;5073350;28;20399;-70
2023/08/09 09:51:35;;;;;;;4.43;1.50;;;23.50;53.90;;;;;;5073255;28;20046;-70
2023/08/09 09:54:01;;;;;;;3.93;1.50;;;23.60;53.90;;;;;;5073053;28;20102;-71
2023/08/09 09:56:26;;;;;;;3.07;1.10;;;23.60;54.50;;;;;;5073111;28;20036;-70
2023/08/09 09:58:52;;;;;;;4.63;1.13;;;23.60;55.40;;;;;;5072869;28;20461;-71
2023/08/09 10:01:25;;;;;;;6.20;1.50;;;23.60;56.20;;;;;;5073254;28;20044;-70
2023/08/09 10:04:06;;;;;;;1.63;1.07;;;23.60;56.10;;;;;;5073000;28;20044;-71
2023/08/09 10:06:35;;;;;;;3.93;1.20;;;23.60;55.70;;;;;;5072338;28;20083;-70
2023/08/09 10:09:02;;;;;;;3.37;1.40;;;23.60;55.60;;;;;;5072704;28;20068;-70
2023/08/09 10:11:28;;;;;;;4.30;1.20;;;23.60;55.00;;;;;;5072737;28;20051;-70
2023/08/09 10:14:00;;;;;;;3.13;1.20;;;23.40;55.30;;;;;;5072702;28;20049;-71
2023/08/09 10:16:28;;;;;;;3.47;1.60;;;23.40;56.40;;;;;;5072921;28;20037;-70
2023/08/09 10:19:00;;;;;;;5.10;1.30;;;23.40;56.20;;;;;;5072791;28;20384;-70
2023/08/09 10:21:26;;;;;;;3.97;1.30;;;23.40;56.80;;;;;;5072876;28;20479;-70
2023/08/09 10:24:12;;;;;;;1.60;1.00;;;23.40;57.30;;;;;;5072605;28;20093;-70
2023/08/09 10:26:45;;;;;;;4.00;1.47;;;23.30;56.50;;;;;;5072832;28;20165;-70
2023/08/09 10:29:20;;;;;;;4.10;1.30;;;23.20;57.40;;;;;;5072958;28;20105;-70
2023/08/09 10:31:57;;;;;;;4.83;1.30;;;23.20;58.80;;;;;;5071681;28;20044;-70
2023/08/09 10:34:36;;;;;;;2.70;1.33;;;23.20;59.40;;;;;;5073066;28;20036;-70
2023/08/09 10:37:03;;;;;;;4.70;1.37;;;23.20;62.00;;;;;;5072719;28;20106;-70
2023/08/09 10:39:32;;;;;;;2.57;1.40;;;23.10;63.10;;;;;;5072722;28;20040;-70
2023/08/09 10:41:59;;;;;;;2.87;1.13;;;23.10;64.60;;;;;;5072551;28;20428;-71
2023/08/09 10:44:39;;;;;;;2.63;1.10;;;23.10;63.10;;;;;;5072637;28;20032;-70
2023/08/09 10:47:09;;;;;;;2.87;1.27;;;23.10;62.80;;;;;;5072521;28;20464;-70
2023/08/09 10:49:53;;;;;;;5.60;1.20;;;23.00;62.60;;;;;;5072787;28;20379;-70
2023/08/09 10:52:21;;;;;;;3.13;1.27;;;22.90;63.70;;;;;;5072643;28;20056;-70
2023/08/09 10:54:49;;;;;;;1.83;1.13;;;22.90;65.10;;;;;;5074361;28;20052;-70
2023/08/09 10:57:16;;;;;;;3.10;1.40;;;22.90;64.80;;;;;;5076141;28;20048;-70
2023/08/09 10:59:43;;;;;;;2.43;1.23;;;22.90;64.20;;;;;;5076430;28;20127;-70
2023/08/09 11:02:10;;;;;;;3.57;1.30;;;22.90;65.70;;;;;;5076016;28;20068;-70
2023/08/09 11:04:36;;;;;;;2.23;1.23;;;23.00;64.10;;;;;;5076327;28;20040;-70
2023/08/09 11:07:02;;;;;;;5.93;1.30;;;23.00;64.40;;;;;;5075916;28;20054;-70
2023/08/09 11:09:32;;;;;;;3.80;1.40;;;23.00;64.90;;;;;;5075833;28;20090;-70
2023/08/09 11:11:58;;;;;;;2.73;1.13;;;23.10;64.50;;;;;;5075737;28;20468;-70
2023/08/09 11:14:25;;;;;;;3.50;1.23;;;23.10;65.40;;;;;;5075905;28;20076;-70
2023/08/09 11:16:51;;;;;;;5.93;1.70;;;23.10;64.90;;;;;;5075910;28;20040;-70
2023/08/09 11:19:21;;;;;;;3.40;1.10;;;23.10;66.10;;;;;;5075685;28;20128;-70
2023/08/09 11:21:52;;;;;;;2.50;1.20;;;23.10;65.50;;;;;;5075982;28;20052;-70
2023/08/09 11:24:24;;;;;;;2.87;1.30;;;23.00;65.00;;;;;;5075642;28;20044;-70
2023/08/09 11:26:53;;;;;;;2.37;1.20;;;22.90;66.10;;;;;;5074613;28;20087;-70
2023/08/09 11:29:22;;;;;;;7.17;1.60;;;22.80;67.80;;;;;;5075689;28;20147;-70
2023/08/09 11:31:50;;;;;;;4.90;1.50;;;22.80;66.60;;;;;;5075820;28;20098;-70
2023/08/09 11:34:18;;;;;;;2.57;1.17;;;22.70;66.90;;;;;;5075425;28;20052;-70
2023/08/09 11:36:46;;;;;;;4.20;1.60;;;22.60;68.20;;;;;;5075578;28;20041;-70
2023/08/09 11:39:13;;;;;;;4.40;1.30;;;22.50;68.90;;;;;;5075332;28;20151;-70
2023/08/09 11:41:53;;;;;;;3.77;1.40;;;22.40;71.90;;;;;;5075758;28;20036;-70
2023/08/09 11:44:24;;;;;;;3.77;1.53;;;22.40;75.40;;;;;;5075199;28;20470;-70
2023/08/09 11:46:53;;;;;;;6.30;1.90;;;22.20;79.40;;;;;;5075349;28;20040;-69
2023/08/09 11:49:31;;;;;;;3.90;1.80;;;22.10;82.60;;;;;;5073905;28;20376;-70
2023/08/09 11:52:00;;;;;;;3.37;1.40;;;22.00;86.40;;;;;;5075360;28;20051;-69
2023/08/09 11:54:26;;;;;;;3.73;1.47;;;22.00;89.50;;;;;;5075241;28;20388;-69
2023/08/09 11:56:52;;;;;;;4.67;1.63;;;22.00;90.40;;;;;;5075329;28;20143;-69
2023/08/09 11:59:20;;;;;;;4.00;1.40;;;22.10;90.50;;;;;;5074970;28;20086;-70
2023/08/09 12:01:49;;;;;;;3.43;1.50;;;22.20;90.70;;;;;;5075180;28;20045;-69
2023/08/09 12:04:17;;;;;;;3.53;1.33;;;22.20;86.20;;;;;;5074946;28;20434;-70
2023/08/09 12:06:54;;;;;;;4.30;1.60;;;22.20;84.90;;;;;;5074164;28;20041;-70
2023/08/09 12:09:42;;;;;;;5.37;1.70;;;22.10;86.40;;;;;;5074722;28;20052;-70
2023/08/09 12:12:19;;;;;;;2.83;1.10;;;22.20;89.60;;;;;;5074658;28;20056;-70
2023/08/09 12:14:46;;;;;;;5.40;1.83;;;22.20;87.50;;;;;;5074803;28;20044;-70
2023/08/09 12:17:24;;;;;;;5.13;1.50;;;22.10;88.80;;;;;;5074270;28;20488;-70
2023/08/09 12:19:58;;;;;;;3.80;1.40;;;22.20;87.90;;;;;;5074754;28;20358;-70
2023/08/09 12:22:28;;;;;;;4.40;1.52;;;22.10;85.00;;;;;;5074507;28;20472;-70
2023/08/09 12:24:55;;;;;;;5.70;1.50;;;22.10;81.50;;;;;;5074639;28;20032;-70
2023/08/09 12:27:21;;;;;;;3.53;1.13;;;22.00;79.70;;;;;;5073154;28;20053;-69
2023/08/09 12:29:47;;;;;;;4.37;1.50;;;21.90;78.00;;;;;;5073390;28;20485;-70
2023/08/09 12:32:13;;;;;;;3.43;1.33;;;21.90;79.70;;;;;;5074300;28;20048;-70
2023/08/09 12:34:39;;;;;;;3.67;1.30;;;21.90;81.80;;;;;;5074452;28;20123;-70
2023/08/09 12:37:05;;;;;;;4.57;1.50;;;21.80;80.30;;;;;;5074015;28;20484;-70
2023/08/09 12:39:31;;;;;;;4.33;1.63;;;21.70;81.30;;;;;;5074575;28;20127;-69
2023/08/09 12:41:57;;;;;;;4.83;1.67;;;21.70;78.80;;;;;;5074376;28;20067;-69
2023/08/09 12:44:26;;;;;;;5.13;1.70;;;21.60;79.70;;;;;;5074098;28;20453;-70
2023/08/09 12:46:52;;;;;;;6.47;1.50;;;21.60;82.50;;;;;;5074229;28;20040;-69
2023/08/09 12:49:18;;;;;;;6.33;1.40;;;21.50;81.90;;;;;;5073895;28;20043;-70